createdAt,value
2022-11-29T00:01:40.322Z,85.01
2022-11-29T00:04:08.632Z,84.90
2022-11-29T00:06:37.213Z,84.94
2022-11-29T00:09:07.320Z,84.79
2022-11-29T00:11:56.008Z,84.88
2022-11-29T00:14:26.313Z,84.99
2022-11-29T00:16:55.948Z,85.02
2022-11-29T00:19:24.304Z,84.98
2022-11-29T00:21:53.089Z,85.17
2022-11-29T00:24:21.597Z,85.25
2022-11-29T00:26:50.261Z,85.41
2022-11-29T00:29:18.820Z,85.34
2022-11-29T00:31:47.221Z,85.53
2022-11-29T00:34:15.708Z,85.39
2022-11-29T00:36:44.497Z,85.47
2022-11-29T00:39:13.086Z,85.62
2022-11-29T00:41:41.356Z,85.65
2022-11-29T00:44:13.987Z,85.45
2022-11-29T00:46:45.485Z,85.42
2022-11-29T00:49:14.377Z,85.37
2022-11-29T00:51:42.753Z,85.30
2022-11-29T00:54:11.337Z,85.37
2022-11-29T00:56:39.921Z,85.43
2022-11-29T00:59:08.797Z,85.24
2022-11-29T01:01:37.369Z,85.11
2022-11-29T01:04:06.091Z,84.87
2022-11-29T01:06:34.359Z,84.90
2022-11-29T01:09:03.149Z,84.70
2022-11-29T01:11:31.732Z,84.71
2022-11-29T01:14:01.911Z,84.75
2022-11-29T01:16:31.116Z,84.75
2022-11-29T01:19:00.966Z,84.65
2022-11-29T01:21:29.667Z,84.55
2022-11-29T01:23:59.877Z,84.40
2022-11-29T01:26:29.174Z,84.45
2022-11-29T01:28:58.068Z,84.20
2022-11-29T01:31:31.224Z,83.86
2022-11-29T01:34:01.222Z,83.83
2022-11-29T01:36:30.064Z,83.77
2022-11-29T01:39:02.134Z,83.49
2022-11-29T01:41:33.041Z,83.31
2022-11-29T01:44:01.448Z,83.43
2022-11-29T01:46:35.050Z,83.51
2022-11-29T01:49:15.413Z,83.48
2022-11-29T01:51:46.554Z,83.53
2022-11-29T01:54:15.548Z,83.48
2022-11-29T01:56:45.258Z,83.43
2022-11-29T01:59:16.048Z,83.29
2022-11-29T02:01:44.852Z,83.32
2022-11-29T02:04:14.191Z,83.12
2022-11-29T02:06:42.663Z,83.13
2022-11-29T02:09:20.260Z,82.96
2022-11-29T02:12:11.615Z,83.19
2022-11-29T02:15:00.951Z,82.76
2022-11-29T02:17:48.169Z,82.91
2022-11-29T02:20:37.951Z,82.87
2022-11-29T02:23:25.377Z,82.91
2022-11-29T02:25:53.996Z,82.93
2022-11-29T02:28:37.086Z,82.68
2022-11-29T02:31:24.183Z,82.65
2022-11-29T02:34:11.321Z,82.38
2022-11-29T02:36:40.008Z,82.29
2022-11-29T02:39:14.344Z,82.47
2022-11-29T02:41:45.982Z,82.50
2022-11-29T02:44:17.741Z,82.56
2022-11-29T02:46:58.481Z,82.59
2022-11-29T02:49:45.834Z,82.76
2022-11-29T02:52:21.571Z,82.64
2022-11-29T02:54:58.672Z,82.65
2022-11-29T02:57:41.535Z,82.71
2022-11-29T03:00:20.581Z,82.85
2022-11-29T03:02:52.056Z,82.93
2022-11-29T03:05:29.360Z,82.90
2022-11-29T03:08:06.741Z,83.06
2022-11-29T03:10:55.340Z,83.12
2022-11-29T03:13:24.094Z,83.24
2022-11-29T03:16:12.970Z,83.31
2022-11-29T03:18:44.503Z,83.42
2022-11-29T03:21:25.376Z,83.35
2022-11-29T03:23:55.556Z,83.70
2022-11-29T03:26:32.576Z,83.53
2022-11-29T03:29:10.856Z,83.91
2022-11-29T03:31:52.993Z,83.61
2022-11-29T03:34:31.463Z,83.72
2022-11-29T03:37:02.636Z,83.70
2022-11-29T03:39:37.481Z,83.47
2022-11-29T03:42:13.334Z,83.37
2022-11-29T03:44:47.430Z,83.27
2022-11-29T03:47:19.412Z,83.24
2022-11-29T03:50:07.117Z,83.27
2022-11-29T03:52:44.945Z,83.24
2022-11-29T03:55:22.642Z,83.28
2022-11-29T03:58:02.395Z,83.25
2022-11-29T04:00:35.990Z,83.44
2022-11-29T04:03:04.365Z,83.41
2022-11-29T04:05:51.695Z,83.66
2022-11-29T04:08:23.143Z,83.72
2022-11-29T04:11:18.760Z,83.87
2022-11-29T04:14:05.061Z,83.70
2022-11-29T04:17:05.799Z,83.61
2022-11-29T04:19:37.149Z,83.54
2022-11-29T04:22:17.999Z,83.56
2022-11-29T04:24:46.765Z,83.47
2022-11-29T04:27:34.504Z,83.39
2022-11-29T04:30:12.341Z,83.39
2022-11-29T04:32:59.611Z,83.34
2022-11-29T04:35:34.396Z,83.73
2022-11-29T04:38:24.074Z,83.73
2022-11-29T04:40:55.932Z,83.74
2022-11-29T04:43:30.967Z,83.78
2022-11-29T04:46:18.229Z,83.93
2022-11-29T04:48:56.060Z,83.99
2022-11-29T04:51:24.680Z,83.65
2022-11-29T04:54:11.896Z,83.68
2022-11-29T04:56:43.552Z,83.59
2022-11-29T04:59:25.345Z,83.50
2022-11-29T05:02:05.856Z,83.38
2022-11-29T05:04:53.438Z,83.36
2022-11-29T05:07:29.756Z,83.34
2022-11-29T05:10:01.027Z,83.13
2022-11-29T05:12:44.995Z,83.22
2022-11-29T05:15:19.589Z,83.30
2022-11-29T05:17:57.606Z,83.06
2022-11-29T05:20:49.045Z,83.06
2022-11-29T05:23:34.228Z,83.13
2022-11-29T05:26:21.338Z,83.00
2022-11-29T05:28:52.899Z,82.96
2022-11-29T05:31:40.317Z,82.64
2022-11-29T05:34:33.228Z,82.74
2022-11-29T05:37:15.781Z,82.89
2022-11-29T05:39:52.048Z,82.84
2022-11-29T05:42:29.846Z,82.84
2022-11-29T05:45:04.370Z,82.96
2022-11-29T05:47:51.692Z,82.74
2022-11-29T05:50:20.332Z,82.67
2022-11-29T05:53:07.068Z,82.41
2022-11-29T05:56:01.881Z,82.56
2022-11-29T05:58:36.206Z,82.42
2022-11-29T06:01:14.722Z,82.49
2022-11-29T06:03:52.522Z,82.45
2022-11-29T06:06:41.076Z,82.43
2022-11-29T06:09:22.462Z,82.65
2022-11-29T06:11:55.246Z,82.67
2022-11-29T06:14:34.273Z,82.55
2022-11-29T06:17:18.830Z,82.75
2022-11-29T06:19:57.049Z,82.77
2022-11-29T06:22:46.409Z,82.63
2022-11-29T06:25:18.485Z,82.43
2022-11-29T06:27:59.553Z,82.07
2022-11-29T06:30:35.168Z,82.05
2022-11-29T06:33:09.622Z,81.84
2022-11-29T06:35:41.178Z,82.32
2022-11-29T06:38:21.847Z,82.10
2022-11-29T06:40:50.907Z,82.30
2022-11-29T06:43:19.318Z,82.28
2022-11-29T06:45:50.670Z,82.00
2022-11-29T06:48:24.445Z,81.90
2022-11-29T06:50:53.057Z,81.86
2022-11-29T06:53:40.178Z,81.75
2022-11-29T06:56:16.748Z,81.55
2022-11-29T06:58:45.434Z,81.58
2022-11-29T07:01:27.945Z,81.63
2022-11-29T07:04:19.320Z,82.00
2022-11-29T07:06:48.053Z,81.90
2022-11-29T07:09:18.700Z,81.76
2022-11-29T07:11:47.573Z,81.93
2022-11-29T07:14:16.362Z,81.85
2022-11-29T07:16:44.946Z,81.45
2022-11-29T07:19:19.777Z,81.85
2022-11-29T07:21:51.338Z,81.76
2022-11-29T07:24:34.053Z,81.55
2022-11-29T07:27:25.775Z,81.47
2022-11-29T07:30:05.621Z,81.70
2022-11-29T07:32:48.806Z,81.50
2022-11-29T07:35:37.604Z,81.62
2022-11-29T07:38:10.387Z,81.61
2022-11-29T07:40:39.176Z,81.51
2022-11-29T07:43:13.608Z,81.22
2022-11-29T07:45:42.188Z,81.12
2022-11-29T07:48:11.381Z,81.34
2022-11-29T07:50:40.168Z,80.97
2022-11-29T07:53:15.989Z,80.87
2022-11-29T07:55:45.020Z,81.12
2022-11-29T07:58:14.215Z,81.14
2022-11-29T08:00:43.462Z,81.39
2022-11-29T08:03:12.308Z,81.86
2022-11-29T08:05:41.092Z,82.13
2022-11-29T08:08:09.577Z,82.07
2022-11-29T08:10:38.874Z,82.55
2022-11-29T08:13:07.254Z,82.60
2022-11-29T08:15:35.840Z,83.21
2022-11-29T08:18:04.587Z,83.01
2022-11-29T08:20:32.902Z,82.79
2022-11-29T08:23:01.487Z,83.48
2022-11-29T08:25:30.079Z,83.21
2022-11-29T08:27:58.501Z,83.47
2022-11-29T08:30:27.035Z,83.29
2022-11-29T08:32:55.823Z,83.45
2022-11-29T08:35:24.826Z,84.03
2022-11-29T08:37:54.389Z,83.98
2022-11-29T08:40:24.335Z,83.47
2022-11-29T08:42:57.226Z,83.39
2022-11-29T08:45:26.782Z,83.64
2022-11-29T08:47:55.314Z,83.75
2022-11-29T08:50:23.913Z,84.06
2022-11-29T08:53:11.221Z,84.30
2022-11-29T08:55:40.993Z,84.10
2022-11-29T08:58:11.361Z,84.74
2022-11-29T09:00:40.407Z,84.67
2022-11-29T09:03:27.781Z,85.10
2022-11-29T09:05:57.726Z,85.57
2022-11-29T09:08:26.020Z,85.82
2022-11-29T09:10:55.374Z,85.52
2022-11-29T09:13:23.957Z,85.67
2022-11-29T09:15:52.235Z,85.47
2022-11-29T09:18:20.819Z,85.68
2022-11-29T09:20:49.607Z,85.58
2022-11-29T09:23:18.191Z,85.87
2022-11-29T09:25:50.154Z,85.52
2022-11-29T09:28:18.840Z,85.75
2022-11-29T09:30:47.220Z,86.11
2022-11-29T09:33:15.977Z,85.97
2022-11-29T09:35:44.387Z,86.47
2022-11-29T09:38:13.688Z,86.37
2022-11-29T09:40:49.304Z,86.62
2022-11-29T09:43:27.573Z,86.87
2022-11-29T09:46:03.666Z,86.73
2022-11-29T09:48:43.046Z,86.91
2022-11-29T09:51:31.864Z,86.83
2022-11-29T09:54:24.350Z,86.69
2022-11-29T09:56:55.598Z,86.58
2022-11-29T09:59:28.175Z,86.74
2022-11-29T10:02:20.882Z,86.76
2022-11-29T10:04:53.866Z,86.47
2022-11-29T10:07:34.756Z,86.56
2022-11-29T10:10:08.794Z,86.74
2022-11-29T10:12:52.634Z,86.78
2022-11-29T10:15:23.234Z,86.90
2022-11-29T10:18:15.000Z,87.21
2022-11-29T10:20:49.069Z,87.02
2022-11-29T10:23:23.937Z,87.33
2022-11-29T10:25:53.522Z,86.71
2022-11-29T10:28:24.177Z,86.77
2022-11-29T10:30:56.903Z,86.91
2022-11-29T10:33:34.863Z,87.28
2022-11-29T10:36:05.006Z,87.46
2022-11-29T10:38:33.365Z,87.66
2022-11-29T10:41:06.655Z,87.33
2022-11-29T10:43:37.698Z,87.37
2022-11-29T10:46:10.822Z,87.33
2022-11-29T10:48:39.472Z,87.22
2022-11-29T10:51:15.740Z,87.64
2022-11-29T10:53:45.243Z,87.89
2022-11-29T10:56:22.508Z,88.27
2022-11-29T10:58:55.723Z,87.96
2022-11-29T11:01:24.953Z,88.52
2022-11-29T11:03:54.377Z,88.48
2022-11-29T11:06:23.113Z,88.76
2022-11-29T11:08:55.920Z,89.01
2022-11-29T11:11:34.069Z,89.36
2022-11-29T11:14:25.627Z,89.56
2022-11-29T11:16:54.359Z,89.64
2022-11-29T11:19:33.344Z,89.69
2022-11-29T11:22:03.052Z,89.66
2022-11-29T11:24:33.378Z,90.36
2022-11-29T11:27:02.000Z,90.81
2022-11-29T11:29:41.708Z,91.10
2022-11-29T11:32:17.266Z,90.59
2022-11-29T11:34:53.172Z,90.30
2022-11-29T11:37:35.938Z,90.66
2022-11-29T11:40:23.575Z,91.10
2022-11-29T11:42:52.341Z,91.55
2022-11-29T11:45:23.561Z,91.64
2022-11-29T11:47:57.194Z,91.31
2022-11-29T11:50:30.795Z,91.15
2022-11-29T11:53:02.739Z,91.30
2022-11-29T11:55:42.811Z,91.30
2022-11-29T11:58:14.775Z,91.52
2022-11-29T12:03:37.934Z,91.63
2022-11-29T12:06:06.536Z,91.56
2022-11-29T12:08:36.771Z,91.07
2022-11-29T12:11:07.603Z,90.93
2022-11-29T12:13:40.174Z,90.89
2022-11-29T12:16:13.811Z,91.44
2022-11-29T12:18:44.510Z,91.71
2022-11-29T12:21:24.169Z,91.03
2022-11-29T12:24:15.699Z,91.28
2022-11-29T12:26:59.723Z,91.41
2022-11-29T12:29:30.224Z,91.68
2022-11-29T12:32:31.194Z,91.55
2022-11-29T12:35:09.202Z,91.64
2022-11-29T12:37:37.786Z,91.71
2022-11-29T12:40:06.579Z,91.66
2022-11-29T12:42:44.940Z,91.59
2022-11-29T12:45:19.616Z,92.03
2022-11-29T12:48:01.099Z,92.26
2022-11-29T12:50:32.764Z,92.04
2022-11-29T12:53:04.004Z,91.93
2022-11-29T12:55:43.965Z,92.27
2022-11-29T12:58:15.163Z,92.00
2022-11-29T13:00:49.932Z,92.39
2022-11-29T13:03:24.449Z,92.82
2022-11-29T13:05:53.242Z,92.79
2022-11-29T13:08:21.818Z,92.39
2022-11-29T13:11:09.659Z,92.39
2022-11-29T13:13:38.181Z,92.66
2022-11-29T13:16:09.524Z,92.38
2022-11-29T13:18:58.145Z,92.96
2022-11-29T13:21:32.215Z,92.51
2022-11-29T13:24:08.680Z,92.50
2022-11-29T13:26:39.030Z,92.68
2022-11-29T13:29:10.548Z,92.85
2022-11-29T13:31:39.534Z,92.78
2022-11-29T13:34:25.181Z,92.68
2022-11-29T13:36:53.529Z,92.89
2022-11-29T13:39:24.855Z,92.79
2022-11-29T13:42:08.750Z,92.89
2022-11-29T13:44:46.491Z,93.07
2022-11-29T13:47:17.284Z,93.35
2022-11-29T13:49:50.373Z,93.24
2022-11-29T13:52:42.311Z,93.41
2022-11-29T13:55:18.680Z,94.01
2022-11-29T13:58:14.809Z,93.88
2022-11-29T14:00:48.710Z,93.94
2022-11-29T14:03:26.714Z,93.72
2022-11-29T14:06:10.353Z,94.29
2022-11-29T14:11:50.032Z,94.24
2022-11-29T14:14:25.255Z,94.27
2022-11-29T14:16:58.021Z,94.90
2022-11-29T14:19:33.784Z,95.02
2022-11-29T14:22:03.101Z,94.76
2022-11-29T14:24:37.613Z,94.77
2022-11-29T14:27:06.099Z,94.73
2022-11-29T14:29:50.311Z,95.00
2022-11-29T14:32:24.056Z,95.46
2022-11-29T14:35:12.810Z,95.70
2022-11-29T14:37:59.415Z,96.53
2022-11-29T14:40:40.186Z,96.42
2022-11-29T14:43:22.216Z,96.83
2022-11-29T14:46:28.893Z,96.82
2022-11-29T14:48:57.750Z,97.04
2022-11-29T14:51:31.147Z,97.07
2022-11-29T14:54:13.350Z,97.41
2022-11-29T14:56:43.045Z,97.55
2022-11-29T14:59:30.403Z,97.79
2022-11-29T15:02:07.907Z,98.21
2022-11-29T15:04:38.306Z,98.65
2022-11-29T15:07:11.506Z,98.72
2022-11-29T15:09:41.926Z,99.48
2022-11-29T15:12:14.501Z,99.34
2022-11-29T15:15:18.310Z,99.23
2022-11-29T15:18:01.425Z,99.38
2022-11-29T15:20:29.797Z,99.71
2022-11-29T15:23:01.180Z,99.95
2022-11-29T15:25:32.173Z,99.73
2022-11-29T15:28:02.535Z,99.73
2022-11-29T15:30:35.414Z,99.84
2022-11-29T15:33:05.916Z,99.66
2022-11-29T15:35:35.002Z,99.97
2022-11-29T15:38:04.034Z,99.83
2022-11-29T15:40:36.616Z,100.00
2022-11-29T15:43:17.484Z,100.00
2022-11-29T15:45:47.191Z,100.00
2022-11-29T15:48:22.022Z,99.99
2022-11-29T15:50:53.678Z,100.00
2022-11-29T15:53:26.358Z,100.00
2022-11-29T15:55:57.166Z,100.00
2022-11-29T15:58:27.930Z,100.00
2022-11-29T16:00:57.512Z,100.00
2022-11-29T16:03:27.143Z,100.00
2022-11-29T16:06:15.901Z,100.00
2022-11-29T16:08:44.539Z,100.00
2022-11-29T16:11:16.141Z,100.00
2022-11-29T16:13:59.165Z,100.00
2022-11-29T16:16:28.879Z,100.00
2022-11-29T16:19:08.210Z,100.00
2022-11-29T16:21:36.724Z,100.00
2022-11-29T16:24:13.365Z,100.00
2022-11-29T16:26:44.215Z,100.00
2022-11-29T16:29:34.185Z,100.00
2022-11-29T16:32:15.348Z,100.00
2022-11-29T16:34:44.935Z,100.00
2022-11-29T16:37:24.516Z,100.00
2022-11-29T16:39:57.098Z,100.00
2022-11-29T16:42:30.389Z,100.00
2022-11-29T16:44:59.381Z,100.00
2022-11-29T16:47:30.015Z,100.00
2022-11-29T16:50:17.127Z,100.00
2022-11-29T16:52:45.924Z,100.00
2022-11-29T16:55:15.631Z,100.00
2022-11-29T16:57:44.830Z,100.00
2022-11-29T17:00:22.939Z,100.00
2022-11-29T17:02:51.208Z,100.00
2022-11-29T17:05:19.902Z,100.00
2022-11-29T17:07:48.382Z,100.00
2022-11-29T17:10:18.564Z,100.00
2022-11-29T17:12:48.383Z,100.00
2022-11-29T17:15:17.000Z,100.00
2022-11-29T17:17:45.481Z,100.00
2022-11-29T17:20:14.476Z,100.00
2022-11-29T17:22:42.958Z,100.00
2022-11-29T17:25:11.540Z,100.00
2022-11-29T17:27:40.434Z,100.00
2022-11-29T17:30:09.095Z,100.00
2022-11-29T17:32:38.222Z,100.00
2022-11-29T17:35:07.620Z,100.00
2022-11-29T17:37:36.099Z,100.00
2022-11-29T17:40:04.856Z,100.00
2022-11-29T17:42:33.576Z,100.00
2022-11-29T17:45:02.059Z,100.00
2022-11-29T17:47:30.640Z,99.98
2022-11-29T17:49:59.326Z,100.00
2022-11-29T17:52:27.809Z,99.91
2022-11-29T17:54:56.291Z,99.76
2022-11-29T17:57:25.283Z,99.55
2022-11-29T17:59:53.708Z,99.58
2022-11-29T18:02:22.196Z,99.27
2022-11-29T18:04:50.933Z,99.19
2022-11-29T18:07:19.501Z,98.94
2022-11-29T18:09:49.228Z,98.77
2022-11-29T18:12:17.811Z,99.15
2022-11-29T18:14:46.499Z,98.96
2022-11-29T18:17:14.817Z,98.54
2022-11-29T18:19:43.444Z,98.66
2022-11-29T18:22:12.364Z,98.49
2022-11-29T18:24:44.523Z,98.53
2022-11-29T18:27:13.515Z,98.10
2022-11-29T18:29:42.098Z,98.02
2022-11-29T18:32:10.549Z,98.08
2022-11-29T18:34:39.094Z,98.15
2022-11-29T18:37:13.980Z,98.07
2022-11-29T18:39:45.712Z,98.39
2022-11-29T18:42:14.445Z,98.54
2022-11-29T18:44:42.718Z,98.20
2022-11-29T18:47:11.473Z,98.70
2022-11-29T18:49:39.783Z,98.40
2022-11-29T18:52:08.163Z,98.17
2022-11-29T18:54:36.568Z,98.28
2022-11-29T18:57:05.292Z,98.29
2022-11-29T18:59:33.605Z,98.27
2022-11-29T19:02:02.190Z,98.02
2022-11-29T19:04:30.979Z,97.83
2022-11-29T19:06:59.255Z,98.21
2022-11-29T19:09:27.940Z,97.89
2022-11-29T19:11:56.695Z,97.84
2022-11-29T19:14:25.012Z,97.45
2022-11-29T19:17:35.667Z,97.43
2022-11-29T19:20:08.973Z,97.54
2022-11-29T19:22:37.554Z,97.50
2022-11-29T19:25:06.382Z,97.59
2022-11-29T19:27:35.029Z,97.09
2022-11-29T19:30:03.724Z,97.14
2022-11-29T19:32:32.201Z,97.14
2022-11-29T19:35:00.679Z,97.57
2022-11-29T19:37:29.176Z,96.99
2022-11-29T19:39:57.846Z,96.83
2022-11-29T19:42:26.374Z,96.83
2022-11-29T19:47:45.103Z,96.88
2022-11-29T19:50:13.588Z,96.81
2022-11-29T19:53:22.088Z,96.80
2022-11-29T19:59:38.191Z,97.00
2022-11-29T20:02:06.865Z,96.96
2022-11-29T20:04:35.225Z,96.98
2022-11-29T20:07:03.976Z,97.14
2022-11-29T20:09:32.585Z,97.04
2022-11-29T20:12:00.969Z,97.39
2022-11-29T20:14:29.702Z,97.14
2022-11-29T20:16:58.213Z,97.33
2022-11-29T20:19:26.489Z,97.33
2022-11-29T20:21:55.148Z,97.06
2022-11-29T20:24:23.761Z,96.88
2022-11-29T20:26:52.238Z,97.20
2022-11-29T20:29:22.198Z,96.94
2022-11-29T20:31:51.392Z,96.85
2022-11-29T20:34:20.651Z,96.72
2022-11-29T20:37:07.877Z,96.68
2022-11-29T20:39:53.159Z,96.53
2022-11-29T20:42:41.713Z,96.59
2022-11-29T20:45:13.667Z,96.32
2022-11-29T20:47:54.228Z,96.29
2022-11-29T20:50:23.970Z,96.50
2022-11-29T20:52:52.529Z,96.31
2022-11-29T20:55:21.823Z,96.80
2022-11-29T20:57:50.615Z,96.55
2022-11-29T21:00:19.065Z,96.61
2022-11-29T21:02:47.475Z,96.46
2022-11-29T21:05:16.776Z,96.43
2022-11-29T21:07:46.029Z,96.46
2022-11-29T21:10:17.451Z,96.24
2022-11-29T21:12:46.415Z,96.16
2022-11-29T21:15:15.004Z,96.25
2022-11-29T21:17:43.653Z,96.55
2022-11-29T21:20:21.393Z,96.53
2022-11-29T21:23:02.359Z,96.68
2022-11-29T21:25:36.774Z,96.52
2022-11-29T21:28:08.946Z,96.69
2022-11-29T21:30:37.632Z,96.43
2022-11-29T21:33:06.158Z,96.24
2022-11-29T21:35:34.668Z,96.37
2022-11-29T21:38:03.807Z,96.25
2022-11-29T21:40:33.609Z,96.22
2022-11-29T21:43:02.293Z,96.13
2022-11-29T21:45:30.725Z,96.01
2022-11-29T21:48:02.225Z,96.49
2022-11-29T21:50:30.606Z,96.19
2022-11-29T21:52:59.291Z,96.24
2022-11-29T21:55:32.111Z,96.00
2022-11-29T21:58:00.657Z,96.05
2022-11-29T22:00:33.064Z,96.19
2022-11-29T22:03:05.049Z,96.25
2022-11-29T22:05:33.577Z,96.04
2022-11-29T22:08:02.190Z,96.08
2022-11-29T22:10:32.690Z,96.30
2022-11-29T22:13:01.172Z,96.44
2022-11-29T22:15:29.960Z,96.25
2022-11-29T22:17:58.442Z,96.12
2022-11-29T22:20:26.756Z,96.24
2022-11-29T22:22:58.677Z,95.99
2022-11-29T22:25:27.880Z,96.34
2022-11-29T22:27:56.160Z,95.93
2022-11-29T22:30:24.796Z,96.03
2022-11-29T22:32:53.530Z,96.24
2022-11-29T22:35:21.884Z,96.19
2022-11-29T22:37:50.287Z,96.10
2022-11-29T22:40:19.371Z,96.29
2022-11-29T22:42:47.778Z,95.94
2022-11-29T22:45:16.246Z,96.06
2022-11-29T22:47:44.728Z,96.36
2022-11-29T22:50:13.211Z,96.41
2022-11-29T22:52:41.486Z,96.45
2022-11-29T22:55:10.479Z,96.30
2022-11-29T22:57:38.858Z,96.46
2022-11-29T23:00:07.649Z,96.43
2022-11-29T23:02:36.364Z,96.76
2022-11-29T23:05:04.916Z,96.85
2022-11-29T23:07:33.471Z,96.74
2022-11-29T23:10:02.803Z,97.19
2022-11-29T23:12:31.078Z,97.47
2022-11-29T23:14:59.602Z,97.34
2022-11-29T23:17:28.555Z,97.55
2022-11-29T23:19:56.830Z,97.81
2022-11-29T23:22:25.312Z,98.04
2022-11-29T23:24:53.998Z,97.93
2022-11-29T23:27:22.273Z,98.12
2022-11-29T23:29:50.551Z,97.68
2022-11-29T23:32:19.545Z,97.91
2022-11-29T23:34:48.501Z,98.21
2022-11-29T23:37:17.019Z,98.05
2022-11-29T23:39:45.707Z,98.28
2022-11-29T23:42:14.392Z,98.41
2022-11-29T23:44:42.672Z,98.63
2022-11-29T23:47:11.254Z,99.05
2022-11-29T23:49:40.101Z,98.80
2022-11-29T23:52:08.420Z,98.72
2022-11-29T23:54:37.004Z,99.02
2022-11-29T23:57:05.901Z,98.84
2022-11-29T23:59:34.588Z,98.96
